sensor_id;sensor_type;location;lat;lon;timestamp;pressure;altitude;pressure_sealevel;temperature;humidity
43703;BME280;29304;56.146;40.396;2022-08-14T00:00:00;100196.84;;;21.77;100.00
43703;BME280;29304;56.146;40.396;2022-08-14T00:00:16;100200.22;;;21.69;100.00
43703;BME280;29304;56.146;40.396;2022-08-14T00:00:27;100200.91;;;21.71;100.00
43703;BME280;29304;56.146;40.396;2022-08-14T00:00:37;100205.53;;;21.69;100.00
43703;BME280;29304;56.146;40.396;2022-08-14T00:00:48;100198.91;;;21.64;100.00
43703;BME280;29304;56.146;40.396;2022-08-14T00:00:59;100195.25;;;21.55;100.00
43703;BME280;29304;56.146;40.396;2022-08-14T00:01:09;100195.53;;;21.52;100.00
43703;BME280;29304;56.146;40.396;2022-08-14T00:01:20;100193.56;;;21.44;100.00
43703;BME280;29304;56.146;40.396;2022-08-14T00:01:30;100196.94;;;21.46;100.00
43703;BME280;29304;56.146;40.396;2022-08-14T00:01:41;100191.88;;;21.43;100.00
43703;BME280;29304;56.146;40.396;2022-08-14T00:01:51;100200.13;;;21.40;100.00
43703;BME280;29304;56.146;40.396;2022-08-14T00:02:03;100194.94;;;21.38;100.00
43703;BME280;29304;56.146;40.396;2022-08-14T00:02:14;100194.38;;;21.35;100.00
43703;BME280;29304;56.146;40.396;2022-08-14T00:02:25;100204.84;;;21.36;100.00
43703;BME280;29304;56.146;40.396;2022-08-14T00:02:36;100195.19;;;21.35;100.00
43703;BME280;29304;56.146;40.396;2022-08-14T00:02:46;100199.97;;;21.41;100.00
43703;BME280;29304;56.146;40.396;2022-08-14T00:02:57;100197.31;;;21.41;100.00
43703;BME280;29304;56.146;40.396;2022-08-14T00:03:07;100196.34;;;21.42;100.00
43703;BME280;29304;56.146;40.396;2022-08-14T00:03:26;100197.47;;;21.40;100.00
43703;BME280;29304;56.146;40.396;2022-08-14T00:03:37;100189.06;;;21.35;100.00
43703;BME280;29304;56.146;40.396;2022-08-14T00:03:48;100195.91;;;21.37;100.00
43703;BME280;29304;56.146;40.396;2022-08-14T00:03:58;100196.50;;;21.41;100.00
43703;BME280;29304;56.146;40.396;2022-08-14T00:04:08;100194.53;;;21.43;100.00
43703;BME280;29304;56.146;40.396;2022-08-14T00:04:19;100195.09;;;21.47;100.00
43703;BME280;29304;56.146;40.396;2022-08-14T00:04:34;100195.09;;;21.47;100.00
43703;BME280;29304;56.146;40.396;2022-08-14T00:04:46;100195.09;;;21.47;100.00
43703;BME280;29304;56.146;40.396;2022-08-14T00:04:56;100200.13;;;21.50;100.00
43703;BME280;29304;56.146;40.396;2022-08-14T00:05:09;100191.88;;;21.53;100.00
43703;BME280;29304;56.146;40.396;2022-08-14T00:05:20;100194.53;;;21.53;100.00
43703;BME280;29304;56.146;40.396;2022-08-14T00:05:31;100198.19;;;21.52;100.00
43703;BME280;29304;56.146;40.396;2022-08-14T00:05:42;100199.88;;;21.53;100.00
43703;BME280;29304;56.146;40.396;2022-08-14T00:05:54;100190.63;;;21.47;100.00
43703;BME280;29304;56.146;40.396;2022-08-14T00:06:05;100191.06;;;21.52;100.00
43703;BME280;29304;56.146;40.396;2022-08-14T00:06:15;100191.19;;;21.51;100.00
43703;BME280;29304;56.146;40.396;2022-08-14T00:06:26;100195.94;;;21.57;100.00
43703;BME280;29304;56.146;40.396;2022-08-14T00:06:36;100196.78;;;21.57;100.00
43703;BME280;29304;56.146;40.396;2022-08-14T00:06:47;100164.88;;;21.38;100.00
43703;BME280;29304;56.146;40.396;2022-08-14T00:06:57;100193.56;;;21.54;100.00
43703;BME280;29304;56.146;40.396;2022-08-14T00:07:09;100194.13;;;21.57;100.00
43703;BME280;29304;56.146;40.396;2022-08-14T00:07:19;100197.34;;;21.61;100.00
43703;BME280;29304;56.146;40.396;2022-08-14T00:07:30;100178.75;;;21.51;100.00
43703;BME280;29304;56.146;40.396;2022-08-14T00:07:40;100191.75;;;21.54;100.00
43703;BME280;29304;56.146;40.396;2022-08-14T00:07:51;100189.22;;;21.53;100.00
43703;BME280;29304;56.146;40.396;2022-08-14T00:08:01;100198.63;;;21.57;100.00
43703;BME280;29304;56.146;40.396;2022-08-14T00:08:12;100192.44;;;21.56;100.00
43703;BME280;29304;56.146;40.396;2022-08-14T00:08:22;100194.81;;;21.59;100.00
43703;BME280;29304;56.146;40.396;2022-08-14T00:08:33;100196.78;;;21.57;100.00
43703;BME280;29304;56.146;40.396;2022-08-14T00:08:43;100197.22;;;21.53;100.00
43703;BME280;29304;56.146;40.396;2022-08-14T00:08:54;100187.41;;;21.53;100.00
43703;BME280;29304;56.146;40.396;2022-08-14T00:09:04;100193.41;;;21.55;100.00
43703;BME280;29304;56.146;40.396;2022-08-14T00:09:15;100197.47;;;21.59;100.00
43703;BME280;29304;56.146;40.396;2022-08-14T00:09:25;100193.16;;;21.58;100.00
43703;BME280;29304;56.146;40.396;2022-08-14T00:09:36;100192.88;;;21.62;100.00
43703;BME280;29304;56.146;40.396;2022-08-14T00:09:46;100193.47;;;21.65;100.00
43703;BME280;29304;56.146;40.396;2022-08-14T00:09:57;100192.78;;;21.63;100.00
43703;BME280;29304;56.146;40.396;2022-08-14T00:10:10;100187.97;;;21.57;100.00
43703;BME280;29304;56.146;40.396;2022-08-14T00:10:22;100192.78;;;21.63;100.00
43703;BME280;29304;56.146;40.396;2022-08-14T00:10:32;100178.59;;;21.53;100.00
43703;BME280;29304;56.146;40.396;2022-08-14T00:10:43;100190.22;;;21.62;100.00
43703;BME280;29304;56.146;40.396;2022-08-14T00:10:55;100191.19;;;21.60;100.00
43703;BME280;29304;56.146;40.396;2022-08-14T00:11:05;100194.47;;;21.64;100.00
43703;BME280;29304;56.146;40.396;2022-08-14T00:11:16;100186.84;;;21.59;100.00
43703;BME280;29304;56.146;40.396;2022-08-14T00:11:27;100192.78;;;21.63;100.00
43703;BME280;29304;56.146;40.396;2022-08-14T00:11:37;100199.91;;;21.63;100.00
43703;BME280;29304;56.146;40.396;2022-08-14T00:11:47;100196.00;;;21.67;100.00
43703;BME280;29304;56.146;40.396;2022-08-14T00:11:58;100195.16;;;21.66;100.00
43703;BME280;29304;56.146;40.396;2022-08-14T00:12:08;100197.34;;;21.61;100.00
43703;BME280;29304;56.146;40.396;2022-08-14T00:12:19;100197.47;;;21.59;100.00
43703;BME280;29304;56.146;40.396;2022-08-14T00:12:37;100195.69;;;21.60;100.00
43703;BME280;29304;56.146;40.396;2022-08-14T00:12:51;100192.78;;;21.63;100.00
43703;BME280;29304;56.146;40.396;2022-08-14T00:13:02;100192.88;;;21.62;100.00
43703;BME280;29304;56.146;40.396;2022-08-14T00:13:14;100195.44;;;21.63;100.00
43703;BME280;29304;56.146;40.396;2022-08-14T00:13:26;100190.38;;;21.60;100.00
43703;BME280;29304;56.146;40.396;2022-08-14T00:13:39;100195.69;;;21.60;100.00
43703;BME280;29304;56.146;40.396;2022-08-14T00:13:49;100189.38;;;21.61;100.00
43703;BME280;29304;56.146;40.396;2022-08-14T00:14:00;100189.28;;;21.63;100.00
43703;BME280;29304;56.146;40.396;2022-08-14T00:14:11;100199.06;;;21.62;100.00
43703;BME280;29304;56.146;40.396;2022-08-14T00:14:22;100186.72;;;21.61;100.00
43703;BME280;29304;56.146;40.396;2022-08-14T00:14:32;100189.28;;;21.63;100.00
43703;BME280;29304;56.146;40.396;2022-08-14T00:14:43;100193.59;;;21.64;100.00
43703;BME280;29304;56.146;40.396;2022-08-14T00:14:53;100198.81;;;21.65;100.00
43703;BME280;29304;56.146;40.396;2022-08-14T00:15:15;100195.44;;;21.63;100.00
43703;BME280;29304;56.146;40.396;2022-08-14T00:15:31;100187.00;;;21.58;100.00
43703;BME280;29304;56.146;40.396;2022-08-14T00:15:43;100192.78;;;21.63;100.00
43703;BME280;29304;56.146;40.396;2022-08-14T00:15:56;100196.00;;;21.67;100.00
43703;BME280;29304;56.146;40.396;2022-08-14T00:16:08;100186.34;;;21.66;100.00
43703;BME280;29304;56.146;40.396;2022-08-14T00:16:23;100194.19;;;21.67;100.00
43703;BME280;29304;56.146;40.396;2022-08-14T00:16:33;100191.66;;;21.66;100.00
43703;BME280;29304;56.146;40.396;2022-08-14T00:16:44;100191.94;;;21.72;100.00
43703;BME280;29304;56.146;40.396;2022-08-14T00:16:54;100187.75;;;21.70;100.00
43703;BME280;29304;56.146;40.396;2022-08-14T00:17:05;100195.88;;;21.68;100.00
43703;BME280;29304;56.146;40.396;2022-08-14T00:17:15;100188.16;;;21.65;100.00
43703;BME280;29304;56.146;40.396;2022-08-14T00:17:26;100194.19;;;21.67;100.00
43703;BME280;29304;56.146;40.396;2022-08-14T00:17:36;100193.22;;;21.68;100.00
43703;BME280;29304;56.146;40.396;2022-08-14T00:17:48;100191.25;;;21.70;100.00
43703;BME280;29304;56.146;40.396;2022-08-14T00:17:59;100193.91;;;21.70;100.00
43703;BME280;29304;56.146;40.396;2022-08-14T00:18:13;100193.22;;;21.68;100.00
43703;BME280;29304;56.146;40.396;2022-08-14T00:18:25;100192.50;;;21.66;100.00
43703;BME280;29304;56.146;40.396;2022-08-14T00:18:36;100198.53;;;21.68;100.00
43703;BME280;29304;56.146;40.396;2022-08-14T00:18:47;100196.28;;;21.73;100.00
43703;BME280;29304;56.146;40.396;2022-08-14T00:18:58;100192.66;;;21.74;100.00
43703;BME280;29304;56.146;40.396;2022-08-14T00:19:09;100193.19;;;21.78;100.00
43703;BME280;29304;56.146;40.396;2022-08-14T00:19:20;100188.16;;;21.75;100.00
43703;BME280;29304;56.146;40.396;2022-08-14T00:19:30;100189.03;;;21.76;100.00
43703;BME280;29304;56.146;40.396;2022-08-14T00:19:41;100185.66;;;21.73;100.00
43703;BME280;29304;56.146;40.396;2022-08-14T00:19:51;100182.03;;;21.74;100.00
43703;BME280;29304;56.146;40.396;2022-08-14T00:20:03;100184.09;;;21.71;100.00
43703;BME280;29304;56.146;40.396;2022-08-14T00:20:15;100199.66;;;21.76;100.00
43703;BME280;29304;56.146;40.396;2022-08-14T00:20:28;100195.44;;;21.73;100.00
43703;BME280;29304;56.146;40.396;2022-08-14T00:20:40;100200.34;;;21.78;100.00
43703;BME280;29304;56.146;40.396;2022-08-14T00:20:52;100194.75;;;21.81;100.00
43703;BME280;29304;56.146;40.396;2022-08-14T00:21:03;100194.06;;;21.79;100.00
43703;BME280;29304;56.146;40.396;2022-08-14T00:21:14;100195.03;;;21.78;100.00
43703;BME280;29304;56.146;40.396;2022-08-14T00:21:24;100195.75;;;21.80;100.00
43703;BME280;29304;56.146;40.396;2022-08-14T00:21:35;100188.16;;;21.75;100.00
43703;BME280;29304;56.146;40.396;2022-08-14T00:21:48;100198.41;;;21.80;100.00
43703;BME280;29304;56.146;40.396;2022-08-14T00:21:59;100191.41;;;21.79;100.00
43703;BME280;29304;56.146;40.396;2022-08-14T00:22:09;100194.06;;;21.79;100.00
43703;BME280;29304;56.146;40.396;2022-08-14T00:22:21;100187.88;;;21.78;100.00
43703;BME280;29304;56.146;40.396;2022-08-14T00:22:31;100193.19;;;21.78;100.00
43703;BME280;29304;56.146;40.396;2022-08-14T00:22:42;100197.41;;;21.81;100.00
43703;BME280;29304;56.146;40.396;2022-08-14T00:22:52;100193.78;;;21.82;100.00
43703;BME280;29304;56.146;40.396;2022-08-14T00:23:05;100185.50;;;21.75;100.00
43703;BME280;29304;56.146;40.396;2022-08-14T00:23:17;100201.34;;;21.77;100.00
43703;BME280;29304;56.146;40.396;2022-08-14T00:23:27;100196.28;;;21.73;100.00
43703;BME280;29304;56.146;40.396;2022-08-14T00:23:39;100194.03;;;21.69;100.00
43703;BME280;29304;56.146;40.396;2022-08-14T00:23:49;100197.94;;;21.65;100.00
43703;BME280;29304;56.146;40.396;2022-08-14T00:24:02;100197.13;;;21.64;100.00
43703;BME280;29304;56.146;40.396;2022-08-14T00:24:13;100201.31;;;21.67;100.00
43703;BME280;29304;56.146;40.396;2022-08-14T00:24:24;100190.41;;;21.70;100.00
43703;BME280;29304;56.146;40.396;2022-08-14T00:24:34;100200.06;;;21.71;100.00
43703;BME280;29304;56.146;40.396;2022-08-14T00:24:44;100197.28;;;21.72;100.00
43703;BME280;29304;56.146;40.396;2022-08-14T00:24:55;100192.66;;;21.74;100.00
43703;BME280;29304;56.146;40.396;2022-08-14T00:25:06;100198.09;;;21.73;100.00
43703;BME280;29304;56.146;40.396;2022-08-14T00:25:18;100192.50;;;21.66;100.00
43703;BME280;29304;56.146;40.396;2022-08-14T00:25:28;100197.97;;;21.74;100.00
43703;BME280;29304;56.146;40.396;2022-08-14T00:25:40;100196.28;;;21.73;100.00
43703;BME280;29304;56.146;40.396;2022-08-14T00:25:53;100193.06;;;21.70;100.00
43703;BME280;29304;56.146;40.396;2022-08-14T00:26:04;100199.91;;;21.63;100.00
43703;BME280;29304;56.146;40.396;2022-08-14T00:26:15;100191.81;;;21.64;100.00
43703;BME280;29304;56.146;40.396;2022-08-14T00:26:25;100191.81;;;21.64;100.00
43703;BME280;29304;56.146;40.396;2022-08-14T00:26:36;100198.09;;;21.63;100.00
43703;BME280;29304;56.146;40.396;2022-08-14T00:26:46;100192.88;;;21.62;100.00
43703;BME280;29304;56.146;40.396;2022-08-14T00:26:57;100199.31;;;21.59;100.00
43703;BME280;29304;56.146;40.396;2022-08-14T00:27:08;100192.03;;;21.51;100.00
43703;BME280;29304;56.146;40.396;2022-08-14T00:27:19;100192.31;;;21.58;100.00
43703;BME280;29304;56.146;40.396;2022-08-14T00:27:29;100195.81;;;21.58;100.00
43703;BME280;29304;56.146;40.396;2022-08-14T00:27:40;100195.69;;;21.60;100.00
43703;BME280;29304;56.146;40.396;2022-08-14T00:27:50;100196.50;;;21.60;100.00
43703;BME280;29304;56.146;40.396;2022-08-14T00:28:01;100199.78;;;21.64;100.00
43703;BME280;29304;56.146;40.396;2022-08-14T00:28:13;100196.50;;;21.60;100.00
43703;BME280;29304;56.146;40.396;2022-08-14T00:28:24;100201.28;;;21.57;100.00
43703;BME280;29304;56.146;40.396;2022-08-14T00:28:37;100191.34;;;21.59;100.00
43703;BME280;29304;56.146;40.396;2022-08-14T00:28:49;100195.69;;;21.60;100.00
43703;BME280;29304;56.146;40.396;2022-08-14T00:28:59;100198.47;;;21.58;100.00
43703;BME280;29304;56.146;40.396;2022-08-14T00:29:10;100199.31;;;21.59;100.00
43703;BME280;29304;56.146;40.396;2022-08-14T00:29:20;100198.72;;;21.55;100.00
43703;BME280;29304;56.146;40.396;2022-08-14T00:29:31;100193.56;;;21.54;100.00
43703;BME280;29304;56.146;40.396;2022-08-14T00:29:41;100200.28;;;21.58;100.00
43703;BME280;29304;56.146;40.396;2022-08-14T00:29:53;100197.63;;;21.58;100.00
43703;BME280;29304;56.146;40.396;2022-08-14T00:30:08;100195.53;;;21.52;100.00
43703;BME280;29304;56.146;40.396;2022-08-14T00:30:20;100196.06;;;21.55;100.00
43703;BME280;29304;56.146;40.396;2022-08-14T00:30:30;100194.53;;;21.53;100.00
43703;BME280;29304;56.146;40.396;2022-08-14T00:30:41;100185.88;;;21.51;100.00
43703;BME280;29304;56.146;40.396;2022-08-14T00:30:54;100195.94;;;21.57;100.00
43703;BME280;29304;56.146;40.396;2022-08-14T00:31:06;100198.88;;;21.54;100.00
43703;BME280;29304;56.146;40.396;2022-08-14T00:31:18;100202.38;;;21.54;100.00
43703;BME280;29304;56.146;40.396;2022-08-14T00:31:29;100191.75;;;21.54;100.00
43703;BME280;29304;56.146;40.396;2022-08-14T00:31:39;100194.28;;;21.56;100.00
43703;BME280;29304;56.146;40.396;2022-08-14T00:31:50;100191.63;;;21.56;100.00
43703;BME280;29304;56.146;40.396;2022-08-14T00:32:00;100197.06;;;21.54;100.00
43703;BME280;29304;56.146;40.396;2022-08-14T00:32:11;100190.91;;;21.54;100.00
43703;BME280;29304;56.146;40.396;2022-08-14T00:32:22;100202.38;;;21.54;100.00
43703;BME280;29304;56.146;40.396;2022-08-14T00:32:33;100192.59;;;21.55;100.00
43703;BME280;29304;56.146;40.396;2022-08-14T00:32:44;100182.50;;;21.49;100.00
43703;BME280;29304;56.146;40.396;2022-08-14T00:32:55;100198.88;;;21.54;100.00
43703;BME280;29304;56.146;40.396;2022-08-14T00:33:05;100193.56;;;21.54;100.00
43703;BME280;29304;56.146;40.396;2022-08-14T00:33:16;100199.72;;;21.54;100.00
43703;BME280;29304;56.146;40.396;2022-08-14T00:33:27;100188.97;;;21.56;100.00
43703;BME280;29304;56.146;40.396;2022-08-14T00:33:38;100198.88;;;21.54;100.00
43703;BME280;29304;56.146;40.396;2022-08-14T00:33:48;100196.50;;;21.51;100.00
43703;BME280;29304;56.146;40.396;2022-08-14T00:33:58;100198.19;;;21.52;100.00
43703;BME280;29304;56.146;40.396;2022-08-14T00:34:09;100188.41;;;21.52;100.00
43703;BME280;29304;56.146;40.396;2022-08-14T00:34:19;100194.41;;;21.54;100.00
43703;BME280;29304;56.146;40.396;2022-08-14T00:34:30;100194.28;;;21.56;100.00
43703;BME280;29304;56.146;40.396;2022-08-14T00:34:40;100193.28;;;21.57;100.00
43703;BME280;29304;56.146;40.396;2022-08-14T00:34:50;100193.41;;;21.55;100.00
43703;BME280;29304;56.146;40.396;2022-08-14T00:35:03;100196.22;;;21.54;100.00
43703;BME280;29304;56.146;40.396;2022-08-14T00:35:14;100191.75;;;21.54;100.00
43703;BME280;29304;56.146;40.396;2022-08-14T00:35:24;100195.09;;;21.56;100.00
43703;BME280;29304;56.146;40.396;2022-08-14T00:35:35;100188.69;;;21.49;100.00
43703;BME280;29304;56.146;40.396;2022-08-14T00:35:46;100192.44;;;21.47;100.00
43703;BME280;29304;56.146;40.396;2022-08-14T00:35:56;100194.13;;;21.48;100.00
43703;BME280;29304;56.146;40.396;2022-08-14T00:36:06;100192.03;;;21.51;100.00
43703;BME280;29304;56.146;40.396;2022-08-14T00:36:21;100194.00;;;21.49;100.00
43703;BME280;29304;56.146;40.396;2022-08-14T00:36:31;100190.34;;;21.50;100.00
43703;BME280;29304;56.146;40.396;2022-08-14T00:36:42;100194.97;;;21.48;100.00
43703;BME280;29304;56.146;40.396;2022-08-14T00:36:52;100188.09;;;21.45;100.00
43703;BME280;29304;56.146;40.396;2022-08-14T00:37:03;100195.25;;;21.45;100.00
43703;BME280;29304;56.146;40.396;2022-08-14T00:37:14;100193.97;;;21.39;100.00
43703;BME280;29304;56.146;40.396;2022-08-14T00:37:25;100191.19;;;21.41;100.00
43703;BME280;29304;56.146;40.396;2022-08-14T00:37:41;100190.06;;;21.43;100.00
43703;BME280;29304;56.146;40.396;2022-08-14T00:37:51;100191.31;;;21.39;100.00
43703;BME280;29304;56.146;40.396;2022-08-14T00:38:02;100180.38;;;21.33;100.00
43703;BME280;29304;56.146;40.396;2022-08-14T00:38:12;100193.69;;;21.33;100.00
43703;BME280;29304;56.146;40.396;2022-08-14T00:38:23;100193.53;;;21.34;100.00
43703;BME280;29304;56.146;40.396;2022-08-14T00:38:34;100192.44;;;21.37;100.00
43703;BME280;29304;56.146;40.396;2022-08-14T00:38:44;100195.91;;;21.37;100.00
43703;BME280;29304;56.146;40.396;2022-08-14T00:38:54;100185.56;;;21.34;100.00
43703;BME280;29304;56.146;40.396;2022-08-14T00:39:05;100192.44;;;21.37;100.00
43703;BME280;29304;56.146;40.396;2022-08-14T00:39:16;100185.69;;;21.33;100.00
43703;BME280;29304;56.146;40.396;2022-08-14T00:39:26;100190.16;;;21.32;100.00
43703;BME280;29304;56.146;40.396;2022-08-14T00:39:37;100191.84;;;21.33;100.00
43703;BME280;29304;56.146;40.396;2022-08-14T00:39:47;100194.78;;;21.30;100.00
43703;BME280;29304;56.146;40.396;2022-08-14T00:39:59;100188.75;;;21.28;100.00
43703;BME280;29304;56.146;40.396;2022-08-14T00:40:12;100185.28;;;21.27;100.00
43703;BME280;29304;56.146;40.396;2022-08-14T00:40:24;100184.69;;;21.24;100.00
43703;BME280;29304;56.146;40.396;2022-08-14T00:40:35;100188.91;;;21.26;100.00
43703;BME280;29304;56.146;40.396;2022-08-14T00:40:46;100189.72;;;21.27;100.00
43703;BME280;29304;56.146;40.396;2022-08-14T00:40:57;100187.94;;;21.27;100.00
43703;BME280;29304;56.146;40.396;2022-08-14T00:41:08;100185.38;;;21.26;100.00
43703;BME280;29304;56.146;40.396;2022-08-14T00:41:18;100188.03;;;21.26;100.00
43703;BME280;29304;56.146;40.396;2022-08-14T00:41:30;100183.72;;;21.25;100.00
43703;BME280;29304;56.146;40.396;2022-08-14T00:41:41;100184.28;;;21.19;100.00
43703;BME280;29304;56.146;40.396;2022-08-14T00:41:51;100184.13;;;21.20;100.00
43703;BME280;29304;56.146;40.396;2022-08-14T00:42:03;100190.56;;;21.18;100.00
43703;BME280;29304;56.146;40.396;2022-08-14T00:42:18;100174.59;;;21.08;100.00
43703;BME280;29304;56.146;40.396;2022-08-14T00:42:29;100186.94;;;21.19;100.00
43703;BME280;29304;56.146;40.396;2022-08-14T00:42:39;100192.81;;;21.22;100.00
43703;BME280;29304;56.146;40.396;2022-08-14T00:42:50;100188.19;;;21.24;100.00
43703;BME280;29304;56.146;40.396;2022-08-14T00:43:01;100194.06;;;21.28;100.00
43703;BME280;29304;56.146;40.396;2022-08-14T00:43:12;100190.59;;;21.27;100.00
43703;BME280;29304;56.146;40.396;2022-08-14T00:43:22;100192.25;;;21.28;100.00
43703;BME280;29304;56.146;40.396;2022-08-14T00:43:34;100193.09;;;21.29;100.00
43703;BME280;29304;56.146;40.396;2022-08-14T00:43:45;100177.13;;;21.19;100.00
43703;BME280;29304;56.146;40.396;2022-08-14T00:43:56;100194.22;;;21.26;100.00
43703;BME280;29304;56.146;40.396;2022-08-14T00:44:07;100185.38;;;21.26;100.00
43703;BME280;29304;56.146;40.396;2022-08-14T00:44:17;100193.09;;;21.29;100.00
43703;BME280;29304;56.146;40.396;2022-08-14T00:44:28;100190.31;;;21.30;100.00
43703;BME280;29304;56.146;40.396;2022-08-14T00:44:39;100182.63;;;21.27;100.00
43703;BME280;29304;56.146;40.396;2022-08-14T00:44:50;100193.78;;;21.31;100.00
43703;BME280;29304;56.146;40.396;2022-08-14T00:45:00;100191.84;;;21.33;100.00
43703;BME280;29304;56.146;40.396;2022-08-14T00:45:13;100191.03;;;21.33;100.00
43703;BME280;29304;56.146;40.396;2022-08-14T00:45:24;100190.16;;;21.32;100.00
43703;BME280;29304;56.146;40.396;2022-08-14T00:45:35;100184.69;;;21.24;100.00
43703;BME280;29304;56.146;40.396;2022-08-14T00:45:45;100185.81;;;21.31;100.00
43703;BME280;29304;56.146;40.396;2022-08-14T00:45:56;100191.03;;;21.33;100.00
43703;BME280;29304;56.146;40.396;2022-08-14T00:46:08;100190.16;;;21.32;100.00
43703;BME280;29304;56.146;40.396;2022-08-14T00:46:19;100184.03;;;21.32;100.00
43703;BME280;29304;56.146;40.396;2022-08-14T00:46:29;100188.47;;;21.31;100.00
43703;BME280;29304;56.146;40.396;2022-08-14T00:46:40;100183.88;;;21.33;100.00
43703;BME280;29304;56.146;40.396;2022-08-14T00:46:50;100188.22;;;21.34;100.00
43703;BME280;29304;56.146;40.396;2022-08-14T00:47:02;100189.88;;;21.35;100.00
43703;BME280;29304;56.146;40.396;2022-08-14T00:47:17;100193.25;;;21.37;100.00
43703;BME280;29304;56.146;40.396;2022-08-14T00:47:28;100192.16;;;21.40;100.00
43703;BME280;29304;56.146;40.396;2022-08-14T00:47:42;100192.00;;;21.41;100.00
43703;BME280;29304;56.146;40.396;2022-08-14T00:47:53;100179.25;;;21.35;100.00
43703;BME280;29304;56.146;40.396;2022-08-14T00:48:04;100188.66;;;21.39;100.00
43703;BME280;29304;56.146;40.396;2022-08-14T00:48:14;100189.34;;;21.41;100.00
43703;BME280;29304;56.146;40.396;2022-08-14T00:48:27;100179.25;;;21.35;100.00
43703;BME280;29304;56.146;40.396;2022-08-14T00:48:38;100189.34;;;21.41;100.00
43703;BME280;29304;56.146;40.396;2022-08-14T00:48:49;100186.13;;;21.38;100.00
43703;BME280;29304;56.146;40.396;2022-08-14T00:48:59;100191.72;;;21.35;100.00
43703;BME280;29304;56.146;40.396;2022-08-14T00:49:10;100183.31;;;21.29;100.00
43703;BME280;29304;56.146;40.396;2022-08-14T00:49:22;100188.03;;;21.26;100.00
43703;BME280;29304;56.146;40.396;2022-08-14T00:49:32;100191.56;;;21.26;100.00
43703;BME280;29304;56.146;40.396;2022-08-14T00:49:44;100189.72;;;21.27;100.00
43703;BME280;29304;56.146;40.396;2022-08-14T00:49:55;100188.03;;;21.26;100.00
43703;BME280;29304;56.146;40.396;2022-08-14T00:50:07;100198.13;;;21.32;100.00
43703;BME280;29304;56.146;40.396;2022-08-14T00:50:20;100186.78;;;21.30;100.00
43703;BME280;29304;56.146;40.396;2022-08-14T00:50:30;100189.34;;;21.32;100.00
43703;BME280;29304;56.146;40.396;2022-08-14T00:50:41;100192.81;;;21.32;100.00
43703;BME280;29304;56.146;40.396;2022-08-14T00:50:51;100193.09;;;21.29;100.00
43703;BME280;29304;56.146;40.396;2022-08-14T00:51:06;100191.28;;;21.29;100.00
43703;BME280;29304;56.146;40.396;2022-08-14T00:51:16;100192.09;;;21.30;100.00
43703;BME280;29304;56.146;40.396;2022-08-14T00:51:27;100190.31;;;21.30;100.00
43703;BME280;29304;56.146;40.396;2022-08-14T00:51:42;100190.97;;;21.23;100.00
43703;BME280;29304;56.146;40.396;2022-08-14T00:51:53;100188.03;;;21.26;100.00
43703;BME280;29304;56.146;40.396;2022-08-14T00:52:04;100193.25;;;21.27;100.00
43703;BME280;29304;56.146;40.396;2022-08-14T00:52:16;100190.69;;;21.26;100.00
43703;BME280;29304;56.146;40.396;2022-08-14T00:52:27;100186.63;;;21.22;100.00
43703;BME280;29304;56.146;40.396;2022-08-14T00:52:38;100190.16;;;21.22;100.00
43703;BME280;29304;56.146;40.396;2022-08-14T00:52:50;100189.44;;;21.20;100.00
43703;BME280;29304;56.146;40.396;2022-08-14T00:53:02;100190.69;;;21.16;100.00
43703;BME280;29304;56.146;40.396;2022-08-14T00:53:13;100187.91;;;21.18;100.00
43703;BME280;29304;56.146;40.396;2022-08-14T00:53:25;100191.38;;;21.18;100.00
43703;BME280;29304;56.146;40.396;2022-08-14T00:53:37;100190.41;;;21.19;100.00
43703;BME280;29304;56.146;40.396;2022-08-14T00:53:48;100187.50;;;21.22;100.00
43703;BME280;29304;56.146;40.396;2022-08-14T00:54:00;100191.81;;;21.23;100.00
43703;BME280;29304;56.146;40.396;2022-08-14T00:54:12;100193.25;;;21.27;100.00
43703;BME280;29304;56.146;40.396;2022-08-14T00:54:24;100189.72;;;21.27;100.00
43703;BME280;29304;56.146;40.396;2022-08-14T00:54:34;100190.69;;;21.26;100.00
43703;BME280;29304;56.146;40.396;2022-08-14T00:54:49;100188.19;;;21.24;100.00
43703;BME280;29304;56.146;40.396;2022-08-14T00:55:05;100185.81;;;21.31;100.00
43703;BME280;29304;56.146;40.396;2022-08-14T00:55:16;100191.41;;;21.28;100.00
43703;BME280;29304;56.146;40.396;2022-08-14T00:55:27;100189.72;;;21.27;100.00
43703;BME280;29304;56.146;40.396;2022-08-14T00:55:38;100191.69;;;21.25;100.00
43703;BME280;29304;56.146;40.396;2022-08-14T00:55:51;100192.53;;;21.25;100.00
43703;BME280;29304;56.146;40.396;2022-08-14T00:56:05;100188.31;;;21.23;100.00
43703;BME280;29304;56.146;40.396;2022-08-14T00:56:17;100189.44;;;21.30;100.00
43703;BME280;29304;56.146;40.396;2022-08-14T00:56:28;100189.34;;;21.32;100.00
43703;BME280;29304;56.146;40.396;2022-08-14T00:56:39;100190.16;;;21.32;100.00
43703;BME280;29304;56.146;40.396;2022-08-14T00:56:51;100180.78;;;21.28;100.00
43703;BME280;29304;56.146;40.396;2022-08-14T00:57:02;100187.38;;;21.34;100.00
43703;BME280;29304;56.146;40.396;2022-08-14T00:57:12;100180.38;;;21.33;100.00
43703;BME280;29304;56.146;40.396;2022-08-14T00:57:25;100196.19;;;21.34;100.00